Olga Topic — ELSG4 — position and weather

sailwx.info

Track history (hours):
 
Tides and Currents Weather Stations Pressure Air Temp Water Temp Dewpoint Dewpoint Depression Visibility Wind Speed Wind Dir Waves Ship Positions

Olga Topic

Last reported at 2015-May-22 09:31 UTC. Time now 2015-May-22 10:01 UTC.
Position N 41°48' W 071°24'.

Length 186 m; draft 6.2 m.

Type: Cargo ship. MMSI: 636010327.

Date/timePositionNaut miles runAvg speedWind from/ knotsBaromVisibWave heightAir tempDewpointWater temp
2015-May-22 09:31N 41°48' W 071°24'0 0.0
2015-May-22 08:25N 41°48' W 071°24'0 0.0
2015-May-22 07:31N 41°48' W 071°24'0 0.0
2015-May-22 06:31N 41°48' W 071°24'0 0.0
2015-May-21 19:25N 41°48' W 071°24'0 0.0
2015-May-21 18:22N 41°48' W 071°24'0 0.0
2015-May-21 16:10N 41°48' W 071°24'0 0.0
2015-May-21 15:28N 41°48' W 071°24'0 0.0
2015-May-21 14:22N 41°48' W 071°24'0 0.0
2015-May-21 13:22N 41°48' W 071°24'0 0.0
2015-May-21 12:28N 41°48' W 071°24'0 0.0
2015-May-21 10:31N 41°48' W 071°24'1 1.0
2015-May-21 09:30N 41°48' W 071°23'8 8.1
2015-May-21 08:33N 41°41' W 071°19'1211.2
2015-May-21 07:30N 41°29' W 071°21'8 8.1
2015-May-21 06:33N 41°21' W 071°19'2 2.3
2015-May-21 05:31N 41°20' W 071°17'0 0.0
2015-May-21 04:31N 41°20' W 071°17'0 0.0
2015-May-21 03:31N 41°20' W 071°17'0 0.0
2015-May-21 02:31N 41°20' W 071°17'0 0.0
2015-May-21 01:31N 41°20' W 071°17'0 0.0
2015-May-21 00:31N 41°20' W 071°17'0 0.0
2015-May-20 23:31N 41°20' W 071°17'0 0.0
2015-May-20 22:31N 41°20' W 071°17'0 0.0
2015-May-20 21:31N 41°20' W 071°17'0 0.1
2015-May-20 20:31N 41°20' W 071°17'0 0.0
2015-May-20 19:31N 41°20' W 071°17'0 0.0
2015-May-20 18:31N 41°20' W 071°17'0 0.0
2015-May-20 17:31N 41°20' W 071°17'0 0.0
2015-May-20 16:31N 41°20' W 071°17'0 0.0
2015-May-20 15:31N 41°20' W 071°17'0 0.1
2015-May-20 14:28N 41°20' W 071°17'1 1.1
2015-May-20 13:33N 41°19' W 071°18'10 9.7
2015-May-20 12:33N 41°10' W 071°21'1212.2
2015-May-20 11:33N 40°58' W 071°23'1312.6
2015-May-20 10:33N 40°47' W 071°31'1212.4
2015-May-20 09:33N 40°36' W 071°39'1212.4
2015-May-20 08:33N 40°25' W 071°46'1211.7
2015-May-20 07:33N 40°15' W 071°54'1211.5
2015-May-20 06:33N 40°05' W 072°02'15312.3
2015-May-19 18:06N 38°46' W 074°52'813.9
2015-May-19 17:33N 38°47' W 075°02'1914.1
2015-May-19 16:10N 39°05' W 075°11'813.4
2015-May-19 15:33N 39°12' W 075°17'1211.9
2015-May-19 14:34N 39°21' W 075°27'1111.3
2015-May-19 13:33N 39°32' W 075°33'1211.6
2015-May-19 12:34N 39°43' W 075°31'1 0.6
2015-May-19 11:32N 39°43' W 075°32'0 0.0
2015-May-19 10:32N 39°43' W 075°32'0 0.0
2015-May-19 09:32N 39°43' W 075°32'0 0.0
2015-May-19 08:32N 39°43' W 075°32'0 0.0
2015-May-19 07:32N 39°43' W 075°32'0 0.0
2015-May-19 06:29N 39°43' W 075°32'0 0.0
2015-May-19 05:32N 39°43' W 075°32'0 0.0
2015-May-19 04:32N 39°43' W 075°32'0 0.0
2015-May-19 03:32N 39°43' W 075°32'0 0.0
2015-May-19 02:32N 39°43' W 075°32'0 0.0
2015-May-19 01:32N 39°43' W 075°32'0 0.0
2015-May-19 00:32N 39°43' W 075°32'0 0.0
2015-May-18 23:32N 39°43' W 075°32'0 0.1
2015-May-18 22:32N 39°43' W 075°31'0 0.0
2015-May-18 21:32N 39°43' W 075°31'0 0.0
2015-May-18 20:23N 39°43' W 075°31'0 0.0
2015-May-18 19:32N 39°43' W 075°31'0 0.0
2015-May-18 18:32N 39°43' W 075°31'0 0.0
2015-May-18 17:32N 39°43' W 075°31'0 0.0
2015-May-18 16:32N 39°43' W 075°31'0 0.0
2015-May-18 15:32N 39°43' W 075°31'0 0.0
2015-May-18 14:32N 39°43' W 075°31'0 0.0
2015-May-18 13:32N 39°43' W 075°31'0 0.0
2015-May-18 12:32N 39°43' W 075°31'0 0.0
2015-May-18 11:32N 39°43' W 075°31'0 0.0
2015-May-18 10:32N 39°43' W 075°31'0 0.0
2015-May-18 09:32N 39°43' W 075°31'0 0.0
2015-May-18 08:32N 39°43' W 075°31'0 0.0
2015-May-18 07:32N 39°43' W 075°31'0 0.0
2015-May-18 06:32N 39°43' W 075°31'0 0.0
2015-May-18 05:32N 39°43' W 075°31'0 0.0
2015-May-18 04:32N 39°43' W 075°31'0 0.0
2015-May-18 03:32N 39°43' W 075°31'0 0.0
2015-May-18 02:32N 39°43' W 075°31'0 0.0
2015-May-18 01:32N 39°43' W 075°31'0 0.0
2015-May-18 00:32N 39°43' W 075°31'0 0.0
2015-May-17 23:32N 39°43' W 075°31'0 0.0
2015-May-17 22:32N 39°43' W 075°31'0 0.0
2015-May-17 21:31N 39°43' W 075°31'0 0.0
2015-May-17 20:31N 39°43' W 075°31'0 0.0
2015-May-17 19:31N 39°43' W 075°31'0 0.0
2015-May-17 18:31N 39°43' W 075°31'0 0.0
2015-May-17 17:31N 39°43' W 075°31'0 0.0
2015-May-17 16:31N 39°43' W 075°31'0 0.0
2015-May-17 15:31N 39°43' W 075°31'0 0.0
2015-May-17 14:31N 39°43' W 075°31'0 0.0
2015-May-17 13:31N 39°43' W 075°31'0 0.0
2015-May-17 12:31N 39°43' W 075°31'0 0.0
2015-May-17 11:31N 39°43' W 075°31'0 0.0
2015-May-17 10:31N 39°43' W 075°31'0 0.0
2015-May-17 09:31N 39°43' W 075°31'0 0.0
2015-May-17 08:31N 39°43' W 075°31'0 0.0
2015-May-17 07:31N 39°43' W 075°31'0 0.0
2015-May-17 06:31N 39°43' W 075°31'0 0.2
2015-May-17 05:33N 39°43' W 075°31'3 2.9
2015-May-17 04:33N 39°40' W 075°32'8 7.7
2015-May-17 03:33N 39°33' W 075°33'1010.0
2015-May-17 02:33N 39°23' W 075°29'1211.6
2015-May-17 01:33N 39°14' W 075°19'1212.1
2015-May-17 00:33N 39°04' W 075°10'1212.3
2015-May-16 23:33N 38°53' W 075°05'10 9.6
2015-May-16 22:33N 38°45' W 074°57'  
Track history (hours):
 
Tides and Currents Weather Stations Pressure Air Temp Water Temp Dewpoint Dewpoint Depression Visibility Wind Speed Wind Dir Waves Ship Positions

Olga Topic

Last reported at 2015-May-22 09:31 UTC. Time now 2015-May-22 10:01 UTC.
Position N 41°48' W 071°24'.

Length 186 m; draft 6.2 m.

Type: Cargo ship. MMSI: 636010327.

Date/timePositionNaut miles runAvg speedWind from/ knotsBaromVisibWave heightAir tempDewpointWater temp
2015-May-22 09:31N 41°48' W 071°24'0 0.0
2015-May-22 08:25N 41°48' W 071°24'0 0.0
2015-May-22 07:31N 41°48' W 071°24'0 0.0
2015-May-22 06:31N 41°48' W 071°24'0 0.0
2015-May-21 19:25N 41°48' W 071°24'0 0.0
2015-May-21 18:22N 41°48' W 071°24'0 0.0
2015-May-21 16:10N 41°48' W 071°24'0 0.0
2015-May-21 15:28N 41°48' W 071°24'0 0.0
2015-May-21 14:22N 41°48' W 071°24'0 0.0
2015-May-21 13:22N 41°48' W 071°24'0 0.0
2015-May-21 12:28N 41°48' W 071°24'0 0.0
2015-May-21 10:31N 41°48' W 071°24'1 1.0
2015-May-21 09:30N 41°48' W 071°23'8 8.1
2015-May-21 08:33N 41°41' W 071°19'1211.2
2015-May-21 07:30N 41°29' W 071°21'8 8.1
2015-May-21 06:33N 41°21' W 071°19'2 2.3
2015-May-21 05:31N 41°20' W 071°17'0 0.0
2015-May-21 04:31N 41°20' W 071°17'0 0.0
2015-May-21 03:31N 41°20' W 071°17'0 0.0
2015-May-21 02:31N 41°20' W 071°17'0 0.0
2015-May-21 01:31N 41°20' W 071°17'0 0.0
2015-May-21 00:31N 41°20' W 071°17'0 0.0
2015-May-20 23:31N 41°20' W 071°17'0 0.0
2015-May-20 22:31N 41°20' W 071°17'0 0.0
2015-May-20 21:31N 41°20' W 071°17'0 0.1
2015-May-20 20:31N 41°20' W 071°17'0 0.0
2015-May-20 19:31N 41°20' W 071°17'0 0.0
2015-May-20 18:31N 41°20' W 071°17'0 0.0
2015-May-20 17:31N 41°20' W 071°17'0 0.0
2015-May-20 16:31N 41°20' W 071°17'0 0.0
2015-May-20 15:31N 41°20' W 071°17'0 0.1
2015-May-20 14:28N 41°20' W 071°17'1 1.1
2015-May-20 13:33N 41°19' W 071°18'10 9.7
2015-May-20 12:33N 41°10' W 071°21'1212.2
2015-May-20 11:33N 40°58' W 071°23'1312.6
2015-May-20 10:33N 40°47' W 071°31'1212.4
2015-May-20 09:33N 40°36' W 071°39'1212.4
2015-May-20 08:33N 40°25' W 071°46'1211.7
2015-May-20 07:33N 40°15' W 071°54'1211.5
2015-May-20 06:33N 40°05' W 072°02'15312.3
2015-May-19 18:06N 38°46' W 074°52'813.9
2015-May-19 17:33N 38°47' W 075°02'1914.1
2015-May-19 16:10N 39°05' W 075°11'813.4
2015-May-19 15:33N 39°12' W 075°17'1211.9
2015-May-19 14:34N 39°21' W 075°27'1111.3
2015-May-19 13:33N 39°32' W 075°33'1211.6
2015-May-19 12:34N 39°43' W 075°31'1 0.6
2015-May-19 11:32N 39°43' W 075°32'0 0.0
2015-May-19 10:32N 39°43' W 075°32'0 0.0
2015-May-19 09:32N 39°43' W 075°32'0 0.0
2015-May-19 08:32N 39°43' W 075°32'0 0.0
2015-May-19 07:32N 39°43' W 075°32'0 0.0
2015-May-19 06:29N 39°43' W 075°32'0 0.0
2015-May-19 05:32N 39°43' W 075°32'0 0.0
2015-May-19 04:32N 39°43' W 075°32'0 0.0
2015-May-19 03:32N 39°43' W 075°32'0 0.0
2015-May-19 02:32N 39°43' W 075°32'0 0.0
2015-May-19 01:32N 39°43' W 075°32'0 0.0
2015-May-19 00:32N 39°43' W 075°32'0 0.0
2015-May-18 23:32N 39°43' W 075°32'0 0.1
2015-May-18 22:32N 39°43' W 075°31'0 0.0
2015-May-18 21:32N 39°43' W 075°31'0 0.0
2015-May-18 20:23N 39°43' W 075°31'0 0.0
2015-May-18 19:32N 39°43' W 075°31'0 0.0
2015-May-18 18:32N 39°43' W 075°31'0 0.0
2015-May-18 17:32N 39°43' W 075°31'0 0.0
2015-May-18 16:32N 39°43' W 075°31'0 0.0
2015-May-18 15:32N 39°43' W 075°31'0 0.0
2015-May-18 14:32N 39°43' W 075°31'0 0.0
2015-May-18 13:32N 39°43' W 075°31'0 0.0
2015-May-18 12:32N 39°43' W 075°31'0 0.0
2015-May-18 11:32N 39°43' W 075°31'0 0.0
2015-May-18 10:32N 39°43' W 075°31'0 0.0
2015-May-18 09:32N 39°43' W 075°31'0 0.0
2015-May-18 08:32N 39°43' W 075°31'0 0.0
2015-May-18 07:32N 39°43' W 075°31'0 0.0
2015-May-18 06:32N 39°43' W 075°31'0 0.0
2015-May-18 05:32N 39°43' W 075°31'0 0.0
2015-May-18 04:32N 39°43' W 075°31'0 0.0
2015-May-18 03:32N 39°43' W 075°31'0 0.0
2015-May-18 02:32N 39°43' W 075°31'0 0.0
2015-May-18 01:32N 39°43' W 075°31'0 0.0
2015-May-18 00:32N 39°43' W 075°31'0 0.0
2015-May-17 23:32N 39°43' W 075°31'0 0.0
2015-May-17 22:32N 39°43' W 075°31'0 0.0
2015-May-17 21:31N 39°43' W 075°31'0 0.0
2015-May-17 20:31N 39°43' W 075°31'0 0.0
2015-May-17 19:31N 39°43' W 075°31'0 0.0
2015-May-17 18:31N 39°43' W 075°31'0 0.0
2015-May-17 17:31N 39°43' W 075°31'0 0.0
2015-May-17 16:31N 39°43' W 075°31'0 0.0
2015-May-17 15:31N 39°43' W 075°31'0 0.0
2015-May-17 14:31N 39°43' W 075°31'0 0.0
2015-May-17 13:31N 39°43' W 075°31'0 0.0
2015-May-17 12:31N 39°43' W 075°31'0 0.0
2015-May-17 11:31N 39°43' W 075°31'0 0.0
2015-May-17 10:31N 39°43' W 075°31'0 0.0
2015-May-17 09:31N 39°43' W 075°31'0 0.0
2015-May-17 08:31N 39°43' W 075°31'0 0.0
2015-May-17 07:31N 39°43' W 075°31'0 0.0
2015-May-17 06:31N 39°43' W 075°31'0 0.2
2015-May-17 05:33N 39°43' W 075°31'3 2.9
2015-May-17 04:33N 39°40' W 075°32'8 7.7
2015-May-17 03:33N 39°33' W 075°33'1010.0
2015-May-17 02:33N 39°23' W 075°29'1211.6
2015-May-17 01:33N 39°14' W 075°19'1212.1
2015-May-17 00:33N 39°04' W 075°10'1212.3
2015-May-16 23:33N 38°53' W 075°05'10 9.6
2015-May-16 22:33N 38°45' W 074°57'  

Dump ship's entire track history